createdAt,value
2023-03-04T00:01:01.461Z,24.65
2023-03-04T00:03:29.520Z,22.52
2023-03-04T00:05:56.843Z,20.52
2023-03-04T00:08:24.602Z,22.52
2023-03-04T00:10:52.111Z,21.17
2023-03-04T00:13:22.073Z,21.90
2023-03-04T00:15:49.625Z,22.50
2023-03-04T00:18:17.376Z,21.35
2023-03-04T00:20:44.673Z,19.30
2023-03-04T00:23:12.283Z,20.80
2023-03-04T00:25:41.926Z,21.90
2023-03-04T00:28:11.274Z,21.45
2023-03-04T00:30:39.423Z,21.05
2023-03-04T00:33:07.016Z,22.13
2023-03-04T00:35:34.506Z,21.15
2023-03-04T00:38:01.613Z,19.73
2023-03-04T00:40:29.492Z,21.05
2023-03-04T00:42:56.722Z,21.75
2023-03-04T00:45:24.468Z,22.27
2023-03-04T00:47:52.312Z,22.42
2023-03-04T00:50:20.076Z,22.05
2023-03-04T00:52:47.350Z,20.75
2023-03-04T00:55:14.946Z,23.35
2023-03-04T00:57:42.297Z,22.15
2023-03-04T01:00:10.749Z,22.40
2023-03-04T01:02:38.086Z,21.45
2023-03-04T01:05:07.149Z,20.73
2023-03-04T01:07:34.455Z,19.02
2023-03-04T01:10:02.354Z,23.33
2023-03-04T01:12:29.712Z,21.35
2023-03-04T01:14:57.255Z,21.98
2023-03-04T01:17:24.523Z,22.95
2023-03-04T01:19:52.330Z,23.13
2023-03-04T01:22:20.658Z,19.25
2023-03-04T01:24:48.910Z,22.15
2023-03-04T01:27:16.205Z,20.88
2023-03-04T01:29:44.677Z,22.27
2023-03-04T01:32:12.162Z,21.48
2023-03-04T01:34:39.896Z,23.85
2023-03-04T01:37:07.062Z,18.10
2023-03-04T01:39:34.677Z,19.58
2023-03-04T01:42:02.387Z,19.58
2023-03-04T01:44:30.042Z,21.83
2023-03-04T01:46:57.489Z,21.70
2023-03-04T01:49:25.538Z,22.25
2023-03-04T01:51:54.479Z,19.67
2023-03-04T01:54:23.215Z,21.38
2023-03-04T01:56:51.992Z,19.63
2023-03-04T01:59:25.760Z,19.08
2023-03-04T02:01:57.859Z,20.00
2023-03-04T02:04:30.566Z,20.77
2023-03-04T02:06:58.396Z,21.88
2023-03-04T02:09:28.871Z,21.42
2023-03-04T02:11:56.541Z,21.38
2023-03-04T02:14:24.846Z,21.27
2023-03-04T02:16:52.521Z,21.55
2023-03-04T02:19:33.115Z,22.50
2023-03-04T02:22:00.452Z,20.75
2023-03-04T02:24:37.525Z,19.98
2023-03-04T02:27:05.309Z,19.85
2023-03-04T02:29:33.364Z,19.92
2023-03-04T02:32:00.839Z,20.42
2023-03-04T02:34:36.043Z,22.10
2023-03-04T02:37:04.475Z,17.02
2023-03-04T02:39:36.190Z,20.58
2023-03-04T02:42:05.110Z,22.23
2023-03-04T02:44:41.932Z,21.75
2023-03-04T02:47:11.709Z,22.05
2023-03-04T02:49:40.352Z,20.95
2023-03-04T02:52:19.875Z,21.63
2023-03-04T02:54:47.904Z,21.67
2023-03-04T02:57:17.016Z,22.30
2023-03-04T02:59:48.335Z,22.15
2023-03-04T03:02:20.252Z,21.52
2023-03-04T03:04:48.481Z,22.67
2023-03-04T03:07:18.646Z,21.45
2023-03-04T03:09:46.587Z,20.98
2023-03-04T03:12:13.957Z,23.23
2023-03-04T03:14:41.879Z,23.20
2023-03-04T03:17:11.934Z,22.23
2023-03-04T03:19:39.707Z,22.33
2023-03-04T03:22:08.938Z,21.17
2023-03-04T03:24:37.101Z,23.67
2023-03-04T03:27:04.460Z,23.08
2023-03-04T03:29:32.295Z,22.92
2023-03-04T03:31:59.659Z,24.85
2023-03-04T03:34:27.485Z,22.92
2023-03-04T03:36:54.965Z,23.73
2023-03-04T03:39:22.583Z,22.65
2023-03-04T03:41:50.256Z,21.77
2023-03-04T03:44:18.201Z,23.58
2023-03-04T03:46:46.926Z,25.45
2023-03-04T03:49:14.619Z,23.90
2023-03-04T03:51:41.867Z,22.58
2023-03-04T03:54:09.974Z,22.85
2023-03-04T03:56:37.231Z,23.65
2023-03-04T03:59:04.971Z,23.63
2023-03-04T04:01:33.822Z,22.95
2023-03-04T04:04:01.671Z,17.58
2023-03-04T04:06:28.955Z,23.45
2023-03-04T04:08:56.600Z,24.40
2023-03-04T04:11:23.879Z,23.55
2023-03-04T04:13:51.671Z,23.90
2023-03-04T04:16:19.140Z,23.02
2023-03-04T04:18:46.973Z,20.02
2023-03-04T04:21:14.966Z,24.15
2023-03-04T04:23:42.568Z,23.85
2023-03-04T04:26:09.663Z,20.55
2023-03-04T04:28:37.349Z,23.00
2023-03-04T04:31:08.428Z,22.85
2023-03-04T04:33:37.023Z,22.70
2023-03-04T04:36:05.259Z,24.58
2023-03-04T04:38:33.114Z,22.70
2023-03-04T04:41:00.512Z,21.45
2023-03-04T04:43:28.347Z,23.45
2023-03-04T04:45:55.675Z,22.25
2023-03-04T04:48:23.332Z,21.90
2023-03-04T04:50:55.297Z,21.80
2023-03-04T04:53:23.015Z,16.23
2023-03-04T04:55:50.228Z,20.83
2023-03-04T04:58:17.915Z,21.45
2023-03-04T05:00:45.235Z,20.40
2023-03-04T05:03:12.930Z,20.58
2023-03-04T05:05:40.455Z,20.05
2023-03-04T05:08:08.157Z,20.90
2023-03-04T05:10:35.304Z,19.50
2023-03-04T05:13:03.083Z,20.27
2023-03-04T05:15:30.408Z,18.88
2023-03-04T05:17:58.047Z,19.52
2023-03-04T05:20:25.835Z,18.50
2023-03-04T05:22:53.872Z,18.35
2023-03-04T05:25:21.138Z,19.55
2023-03-04T05:27:48.698Z,19.85
2023-03-04T05:30:16.037Z,18.67
2023-03-04T05:32:43.888Z,18.33
2023-03-04T05:35:11.158Z,18.00
2023-03-04T05:37:38.929Z,18.70
2023-03-04T05:40:06.768Z,17.05
2023-03-04T05:42:34.734Z,17.58
2023-03-04T05:45:02.140Z,16.13
2023-03-04T05:47:29.568Z,17.65
2023-03-04T05:49:58.304Z,17.73
2023-03-04T05:52:25.877Z,17.45
2023-03-04T05:54:53.228Z,16.30
2023-03-04T05:57:20.968Z,18.38
2023-03-04T05:59:48.165Z,16.95
2023-03-04T06:02:16.066Z,17.90
2023-03-04T06:04:43.474Z,17.73
2023-03-04T06:07:11.093Z,16.95
2023-03-04T06:09:38.575Z,17.48
2023-03-04T06:12:06.508Z,17.83
2023-03-04T06:14:33.687Z,17.58
2023-03-04T06:17:01.185Z,16.35
2023-03-04T06:19:28.502Z,16.30
2023-03-04T06:21:56.057Z,17.73
2023-03-04T06:24:23.391Z,16.23
2023-03-04T06:26:51.012Z,17.25
2023-03-04T06:29:18.357Z,17.15
2023-03-04T06:31:46.077Z,17.15
2023-03-04T06:34:13.512Z,16.92
2023-03-04T06:36:41.088Z,17.17
2023-03-04T06:39:09.011Z,17.27
2023-03-04T06:41:36.698Z,17.52
2023-03-04T06:44:04.659Z,16.25
2023-03-04T06:46:33.899Z,17.17
2023-03-04T06:49:02.146Z,16.70
2023-03-04T06:51:30.503Z,16.20
2023-03-04T06:53:57.842Z,16.95
2023-03-04T06:56:25.659Z,16.88
2023-03-04T06:58:53.037Z,17.58
2023-03-04T07:01:21.960Z,16.60
2023-03-04T07:03:50.341Z,15.35
2023-03-04T07:06:21.610Z,15.18
2023-03-04T07:08:49.468Z,15.25
2023-03-04T07:11:17.741Z,16.35
2023-03-04T07:13:45.974Z,15.93
2023-03-04T07:16:18.897Z,16.90
2023-03-04T07:18:47.665Z,15.63
2023-03-04T07:21:16.223Z,15.70
2023-03-04T07:23:44.056Z,16.00
2023-03-04T07:26:12.012Z,16.70
2023-03-04T07:28:39.634Z,15.68
2023-03-04T07:31:12.227Z,17.30
2023-03-04T07:33:39.741Z,14.95
2023-03-04T07:36:07.555Z,15.73
2023-03-04T07:38:34.883Z,16.65
2023-03-04T07:41:03.288Z,15.68
2023-03-04T07:43:30.562Z,15.02
2023-03-04T07:46:02.334Z,14.68
2023-03-04T07:48:30.032Z,15.13
2023-03-04T07:51:11.344Z,14.63
2023-03-04T07:53:40.548Z,15.30
2023-03-04T07:56:09.250Z,14.40
2023-03-04T07:58:36.546Z,14.88
2023-03-04T08:01:10.624Z,14.07
2023-03-04T08:03:37.865Z,12.43
2023-03-04T08:06:07.602Z,14.20
2023-03-04T08:08:35.258Z,12.80
2023-03-04T08:11:07.547Z,14.35
2023-03-04T08:13:35.290Z,14.45
2023-03-04T08:16:04.100Z,13.18
2023-03-04T08:18:31.507Z,13.35
2023-03-04T08:20:59.376Z,13.07
2023-03-04T08:23:26.920Z,13.57
2023-03-04T08:25:54.868Z,13.93
2023-03-04T08:28:22.308Z,12.63
2023-03-04T08:30:53.615Z,12.77
2023-03-04T08:33:20.945Z,12.38
2023-03-04T08:35:48.957Z,12.65
2023-03-04T08:38:16.302Z,11.00
2023-03-04T08:40:43.938Z,12.80
2023-03-04T08:43:11.375Z,11.57
2023-03-04T08:45:39.307Z,13.52
2023-03-04T08:48:06.912Z,10.82
2023-03-04T08:50:34.660Z,11.32
2023-03-04T08:53:01.980Z,11.85
2023-03-04T08:55:29.564Z,12.18
2023-03-04T08:57:56.982Z,11.77
2023-03-04T09:00:24.592Z,9.88
2023-03-04T09:02:52.080Z,11.57
2023-03-04T09:05:19.635Z,11.25
2023-03-04T09:07:47.475Z,10.75
2023-03-04T09:10:15.256Z,12.27
2023-03-04T09:12:42.683Z,11.18
2023-03-04T09:15:12.091Z,11.27
2023-03-04T09:17:40.422Z,10.02
2023-03-04T09:20:10.482Z,11.80
2023-03-04T09:22:38.863Z,10.95
2023-03-04T09:25:12.052Z,10.40
2023-03-04T09:27:40.733Z,10.93
2023-03-04T09:30:09.500Z,10.75
2023-03-04T09:32:37.181Z,10.32
2023-03-04T09:35:05.510Z,11.45
2023-03-04T09:37:33.415Z,11.45
2023-03-04T09:40:00.958Z,11.98
2023-03-04T09:42:34.876Z,10.65
2023-03-04T09:45:04.377Z,11.13
2023-03-04T09:47:34.677Z,11.68
2023-03-04T09:50:06.959Z,10.60
2023-03-04T09:52:52.896Z,10.43
2023-03-04T09:55:28.935Z,11.65
2023-03-04T09:58:34.145Z,12.10
2023-03-04T10:01:31.277Z,12.20
2023-03-04T10:04:00.786Z,12.57
2023-03-04T10:06:29.089Z,10.82
2023-03-04T10:09:00.427Z,9.65
2023-03-04T10:11:43.289Z,12.75
2023-03-04T10:14:22.479Z,12.93
2023-03-04T10:16:56.418Z,13.00
2023-03-04T10:19:45.384Z,11.38
2023-03-04T10:22:19.906Z,12.73
2023-03-04T10:24:48.014Z,12.90
2023-03-04T10:27:17.869Z,12.82
2023-03-04T10:29:46.845Z,14.38
2023-03-04T10:32:18.379Z,13.55
2023-03-04T10:34:46.176Z,14.18
2023-03-04T10:37:14.172Z,12.63
2023-03-04T10:39:42.594Z,12.50
2023-03-04T10:42:16.580Z,13.38
2023-03-04T10:44:52.512Z,14.02
2023-03-04T10:47:21.353Z,14.68
2023-03-04T10:49:57.676Z,14.45
2023-03-04T10:52:33.054Z,13.95
2023-03-04T10:55:16.406Z,16.45
2023-03-04T10:57:45.944Z,17.30
2023-03-04T11:00:19.274Z,13.60
2023-03-04T11:02:47.855Z,14.93
2023-03-04T11:05:15.688Z,14.73
2023-03-04T11:07:59.336Z,15.35
2023-03-04T11:13:07.787Z,15.80
2023-03-04T11:15:48.946Z,15.85
2023-03-04T11:18:18.305Z,15.25
2023-03-04T11:20:49.641Z,15.40
2023-03-04T11:23:23.902Z,15.07
2023-03-04T11:25:58.135Z,15.27
2023-03-04T11:28:40.474Z,16.95
2023-03-04T11:31:17.062Z,16.23
2023-03-04T11:33:57.833Z,16.42
2023-03-04T11:36:51.167Z,14.93
2023-03-04T11:39:33.343Z,15.60
2023-03-04T11:42:49.041Z,17.73
2023-03-04T11:45:53.901Z,18.73
2023-03-04T11:48:37.597Z,16.42
2023-03-04T11:51:19.755Z,15.70
2023-03-04T11:53:56.282Z,16.27
2023-03-04T11:56:35.795Z,16.35
2023-03-04T11:59:35.889Z,17.20
2023-03-04T12:02:19.613Z,16.40
2023-03-04T12:05:19.791Z,18.55
2023-03-04T12:08:06.521Z,18.15
2023-03-04T12:10:52.637Z,21.75
2023-03-04T12:13:42.606Z,17.05
2023-03-04T12:16:47.218Z,15.57
2023-03-04T12:19:39.938Z,13.63
2023-03-04T12:22:41.613Z,12.38
2023-03-04T12:25:17.697Z,11.90
2023-03-04T12:27:51.999Z,10.77
2023-03-04T12:30:53.693Z,10.55
2023-03-04T12:33:24.749Z,11.43
2023-03-04T12:36:04.976Z,11.73
2023-03-04T12:38:44.915Z,11.43
2023-03-04T12:41:35.619Z,11.45
2023-03-04T12:44:22.154Z,11.07
2023-03-04T12:47:11.814Z,12.80
2023-03-04T12:49:57.973Z,11.45
2023-03-04T12:52:47.306Z,10.50
2023-03-04T12:55:17.694Z,10.75
2023-03-04T12:57:46.011Z,11.23
2023-03-04T13:00:13.762Z,9.68
2023-03-04T13:03:00.786Z,11.15
2023-03-04T13:05:37.345Z,10.07
2023-03-04T13:08:31.199Z,9.63
2023-03-04T13:11:27.580Z,9.88
2023-03-04T13:14:03.396Z,9.27
2023-03-04T13:16:33.472Z,9.98
2023-03-04T13:19:01.487Z,9.25
2023-03-04T13:21:31.998Z,9.70
2023-03-04T13:24:32.064Z,6.32
2023-03-04T13:26:59.486Z,4.40
2023-03-04T13:29:27.255Z,7.05
2023-03-04T13:32:05.862Z,4.10
2023-03-04T13:34:48.823Z,3.38
2023-03-04T13:37:36.387Z,2.80
2023-03-04T13:40:24.508Z,2.53
2023-03-04T13:42:51.854Z,3.15
2023-03-04T13:45:39.397Z,3.22
2023-03-04T13:48:24.527Z,4.30
2023-03-04T13:50:52.729Z,4.40
2023-03-04T13:53:47.206Z,3.92
2023-03-04T13:56:24.040Z,3.50
2023-03-04T13:59:01.536Z,4.05
2023-03-04T14:01:33.855Z,4.07
2023-03-04T14:04:05.588Z,3.25
2023-03-04T14:06:33.859Z,4.47
2023-03-04T14:09:15.013Z,4.03
2023-03-04T14:11:43.756Z,3.88
2023-03-04T14:14:13.992Z,3.38
2023-03-04T14:16:48.767Z,3.35
2023-03-04T14:19:25.424Z,3.75
2023-03-04T14:21:53.177Z,3.60
2023-03-04T14:24:22.434Z,4.55
2023-03-04T14:26:50.794Z,4.05
2023-03-04T14:29:26.953Z,3.85
2023-03-04T14:31:56.593Z,4.07
2023-03-04T14:34:32.315Z,5.28
2023-03-04T14:37:00.447Z,4.97
2023-03-04T14:39:30.801Z,4.70
2023-03-04T14:42:04.798Z,4.38
2023-03-04T14:47:30.400Z,2.38
2023-03-04T14:52:48.516Z,2.58
2023-03-04T14:55:15.720Z,2.78
2023-03-04T14:57:45.428Z,1.85
2023-03-04T15:00:27.252Z,2.40
2023-03-04T15:02:57.541Z,1.95
2023-03-04T15:05:28.794Z,2.17
2023-03-04T15:08:29.459Z,1.15
2023-03-04T15:11:02.572Z,1.10
2023-03-04T15:13:42.545Z,1.40
2023-03-04T15:16:11.790Z,1.67
2023-03-04T15:18:40.448Z,1.02
2023-03-04T15:21:19.928Z,1.70
2023-03-04T15:23:47.753Z,1.60
2023-03-04T15:26:15.087Z,1.90
2023-03-04T15:28:43.486Z,1.95
2023-03-04T15:31:21.581Z,1.27
2023-03-04T15:33:49.420Z,0.60
2023-03-04T15:36:19.251Z,1.58
2023-03-04T15:38:50.148Z,1.65
2023-03-04T15:41:27.142Z,1.90
2023-03-04T15:43:55.278Z,1.30
2023-03-04T15:46:23.132Z,1.58
2023-03-04T15:48:50.800Z,2.03
2023-03-04T15:51:21.130Z,1.67
2023-03-04T15:53:54.294Z,1.30
2023-03-04T15:56:27.172Z,2.03
2023-03-04T15:59:15.407Z,1.75
2023-03-04T16:01:43.064Z,1.95
2023-03-04T16:04:18.302Z,1.50
2023-03-04T16:06:47.664Z,1.92
2023-03-04T16:09:17.228Z,1.73
2023-03-04T16:11:47.669Z,1.65
2023-03-04T16:14:16.227Z,1.00
2023-03-04T16:16:44.526Z,1.25
2023-03-04T16:19:12.255Z,0.57
2023-03-04T16:21:40.240Z,0.98
2023-03-04T16:24:14.967Z,1.00
2023-03-04T16:26:42.336Z,1.30
2023-03-04T16:29:10.205Z,0.95
2023-03-04T16:31:37.605Z,0.90
2023-03-04T16:34:05.396Z,1.65
2023-03-04T16:36:32.920Z,1.45
2023-03-04T16:39:03.814Z,1.52
2023-03-04T16:41:31.398Z,1.52
2023-03-04T16:44:00.985Z,1.45
2023-03-04T16:46:28.890Z,1.08
2023-03-04T16:48:56.711Z,2.33
2023-03-04T16:51:24.311Z,2.15
2023-03-04T16:53:55.009Z,1.92
2023-03-04T16:56:22.940Z,1.70
2023-03-04T16:58:50.596Z,2.17
2023-03-04T17:01:29.041Z,1.42
2023-03-04T17:03:56.922Z,1.60
2023-03-04T17:06:25.362Z,1.98
2023-03-04T17:08:53.055Z,1.92
2023-03-04T17:11:22.437Z,1.45
2023-03-04T17:13:50.652Z,1.33
2023-03-04T17:16:18.538Z,1.50
2023-03-04T17:18:46.368Z,1.80
2023-03-04T17:21:22.632Z,2.28
2023-03-04T17:23:50.788Z,2.15
2023-03-04T17:26:21.190Z,1.85
2023-03-04T17:28:52.010Z,2.22
2023-03-04T17:31:20.709Z,1.30
2023-03-04T17:33:49.179Z,1.08
2023-03-04T17:36:18.608Z,1.67
2023-03-04T17:38:46.791Z,1.52
2023-03-04T17:41:17.566Z,1.65
2023-03-04T17:43:49.791Z,1.58
2023-03-04T17:46:20.529Z,0.50
2023-03-04T17:48:49.001Z,1.27
2023-03-04T17:51:16.285Z,1.60
2023-03-04T17:53:43.999Z,1.10
2023-03-04T17:56:12.187Z,1.15
2023-03-04T17:58:40.211Z,1.23
2023-03-04T18:01:16.307Z,1.38
2023-03-04T18:03:44.199Z,1.25
2023-03-04T18:06:12.124Z,1.92
2023-03-04T18:08:39.866Z,1.92
2023-03-04T18:11:08.074Z,3.38
2023-03-04T18:13:46.531Z,2.75
2023-03-04T18:16:16.513Z,1.80
2023-03-04T18:18:45.331Z,2.78
2023-03-04T18:21:13.889Z,1.63
2023-03-04T18:23:47.611Z,1.92
2023-03-04T18:26:24.942Z,4.10
2023-03-04T18:28:57.233Z,1.60
2023-03-04T18:31:35.913Z,1.30
2023-03-04T18:34:16.536Z,1.60
2023-03-04T18:36:54.220Z,1.20
2023-03-04T18:39:31.209Z,1.48
2023-03-04T18:42:02.074Z,1.48
2023-03-04T18:44:32.567Z,1.48
2023-03-04T18:47:03.864Z,1.15
2023-03-04T18:49:32.488Z,0.95
2023-03-04T18:52:04.399Z,1.42
2023-03-04T18:54:32.517Z,1.20
2023-03-04T18:57:18.830Z,1.98
2023-03-04T19:00:00.420Z,1.85
2023-03-04T19:05:53.062Z,3.15
2023-03-04T19:08:23.611Z,2.05
2023-03-04T19:10:55.938Z,3.42
2023-03-04T19:13:30.709Z,2.65
2023-03-04T19:15:59.626Z,2.35
2023-03-04T19:18:29.460Z,2.75
2023-03-04T19:21:00.043Z,2.00
2023-03-04T19:23:30.835Z,1.85
2023-03-04T19:25:58.939Z,2.70
2023-03-04T19:28:29.616Z,2.70
2023-03-04T19:31:27.685Z,3.03
2023-03-04T19:34:03.526Z,3.30
2023-03-04T19:36:34.225Z,5.40
2023-03-04T19:39:09.809Z,5.60
2023-03-04T19:41:38.034Z,6.35
2023-03-04T19:44:05.692Z,5.95
2023-03-04T19:46:46.952Z,2.92
2023-03-04T19:49:14.923Z,3.83
2023-03-04T19:51:46.347Z,3.47
2023-03-04T19:54:17.370Z,3.22
2023-03-04T19:56:45.558Z,3.03
2023-03-04T19:59:16.905Z,3.15
2023-03-04T20:01:46.126Z,3.10
2023-03-04T20:04:16.537Z,2.67
2023-03-04T20:06:49.947Z,3.92
2023-03-04T20:09:20.487Z,3.83
2023-03-04T20:11:58.153Z,2.97
2023-03-04T20:14:28.751Z,3.20
2023-03-04T20:17:02.989Z,3.38
2023-03-04T20:19:31.854Z,4.00
2023-03-04T20:22:09.233Z,5.07
2023-03-04T20:24:40.446Z,9.82
2023-03-04T20:27:11.516Z,8.40
2023-03-04T20:29:39.334Z,5.93
2023-03-04T20:32:07.245Z,5.05
2023-03-04T20:34:37.000Z,8.13
2023-03-04T20:37:04.619Z,10.27
2023-03-04T20:39:32.989Z,9.80
2023-03-04T20:42:04.097Z,9.43
2023-03-04T20:44:31.876Z,14.82
2023-03-04T20:47:00.462Z,16.98
2023-03-04T20:49:28.770Z,13.27
2023-03-04T20:52:00.977Z,11.63
2023-03-04T20:54:28.763Z,9.65
2023-03-04T20:56:56.823Z,13.02
2023-03-04T20:59:24.809Z,10.18
2023-03-04T21:01:52.714Z,7.30
2023-03-04T21:04:20.966Z,8.38
2023-03-04T21:06:51.799Z,10.82
2023-03-04T21:09:21.682Z,8.50
2023-03-04T21:11:51.841Z,9.38
2023-03-04T21:14:23.838Z,10.48
2023-03-04T21:17:01.160Z,10.43
2023-03-04T21:19:33.305Z,11.20
2023-03-04T21:22:02.419Z,9.20
2023-03-04T21:24:34.211Z,8.90
2023-03-04T21:27:04.734Z,8.23
2023-03-04T21:29:32.802Z,8.20
2023-03-04T21:32:27.463Z,9.40
2023-03-04T21:34:56.015Z,8.60
2023-03-04T21:37:24.876Z,8.40
2023-03-04T21:39:52.706Z,7.63
2023-03-04T21:42:20.662Z,7.80
2023-03-04T21:44:50.135Z,7.10
2023-03-04T21:47:22.812Z,6.20
2023-03-04T21:49:50.757Z,6.25
2023-03-04T21:52:20.806Z,6.15
2023-03-04T21:54:48.478Z,7.65
2023-03-04T21:57:16.528Z,6.43
2023-03-04T21:59:44.086Z,6.82
2023-03-04T22:02:20.988Z,6.05
2023-03-04T22:04:48.740Z,6.00
2023-03-04T22:07:16.545Z,6.75
2023-03-04T22:09:44.023Z,5.65
2023-03-04T22:12:11.938Z,5.03
2023-03-04T22:14:39.430Z,5.13
2023-03-04T22:17:07.280Z,5.88
2023-03-04T22:19:34.972Z,5.97
2023-03-04T22:22:02.965Z,5.82
2023-03-04T22:24:30.325Z,6.32
2023-03-04T22:27:00.027Z,5.78
2023-03-04T22:29:27.606Z,5.72
2023-03-04T22:31:55.347Z,5.40
2023-03-04T22:34:23.211Z,5.13
2023-03-04T22:36:50.886Z,6.53
2023-03-04T22:39:19.611Z,6.72
2023-03-04T22:41:47.741Z,6.47
2023-03-04T22:44:15.109Z,5.45
2023-03-04T22:46:43.867Z,5.68
2023-03-04T22:49:13.277Z,6.15
2023-03-04T22:51:43.944Z,5.25
2023-03-04T22:54:16.131Z,6.25
2023-03-04T22:56:44.358Z,4.95
2023-03-04T22:59:12.012Z,4.45
2023-03-04T23:01:41.056Z,4.95
2023-03-04T23:04:08.782Z,4.00
2023-03-04T23:06:37.893Z,4.38
2023-03-04T23:09:05.312Z,3.95
2023-03-04T23:11:35.706Z,3.78
2023-03-04T23:14:06.622Z,4.65
2023-03-04T23:16:42.634Z,4.40
2023-03-04T23:19:14.348Z,4.80
2023-03-04T23:21:42.894Z,4.07
2023-03-04T23:24:12.008Z,4.60
2023-03-04T23:26:41.405Z,5.47
2023-03-04T23:29:11.967Z,4.38
2023-03-04T23:31:39.888Z,4.25
2023-03-04T23:34:07.315Z,4.57
2023-03-04T23:36:37.417Z,5.20
2023-03-04T23:39:06.537Z,4.47
2023-03-04T23:41:35.040Z,3.85
2023-03-04T23:44:02.773Z,4.15
2023-03-04T23:46:30.650Z,3.75
2023-03-04T23:48:58.401Z,5.15
2023-03-04T23:51:28.450Z,4.40
2023-03-04T23:53:56.450Z,3.97
2023-03-04T23:56:26.598Z,4.35
2023-03-04T23:58:54.151Z,5.20
